Aviation Digital Data Service (ADDS)

Output produced by METARs form (0339 UTC 26 June 2019)
found at http://www.aviationweather.gov/metar/data/
 
METAR text: LFRL 260330Z AUTO 05006KT 020V080 CAVOK 16/15 Q1021
Conditions at: LFRL (LANVEOC/POULMIC(, FR) observed 0330 UTC 26 June 2019
Temperature: 16.0°C (61°F)
Dewpoint: 15.0°C (59°F) [RH = 94%]
Pressure (altimeter): 30.15 inches Hg (1021.0 mb)
Winds: from the NE (50 degrees) at 7 MPH (6 knots; 3.1 m/s)
Visibility: 6 or more miles (10+ km)
Ceiling: ceiling and visibility are OK
Clouds: unknown
Weather: no significant weather observed at this time

METAR text: LFRL 260300Z AUTO 06006KT 030V090 CAVOK 16/14 Q1021 NOSIG
Conditions at: LFRL (LANVEOC/POULMIC(, FR) observed 0300 UTC 26 June 2019
Temperature: 16.0°C (61°F)
Dewpoint: 14.0°C (57°F) [RH = 88%]
Pressure (altimeter): 30.15 inches Hg (1021.0 mb)
Winds: from the ENE (60 degrees) at 7 MPH (6 knots; 3.1 m/s)
Visibility: 6 or more miles (10+ km)
Ceiling: ceiling and visibility are OK
Clouds: unknown
Weather: no significant weather observed at this time

METAR text: LFRL 260230Z AUTO 05007KT 020V080 CAVOK 16/15 Q1021 NOSIG
Conditions at: LFRL (LANVEOC/POULMIC(, FR) observed 0230 UTC 26 June 2019
Temperature: 16.0°C (61°F)
Dewpoint: 15.0°C (59°F) [RH = 94%]
Pressure (altimeter): 30.15 inches Hg (1021.0 mb)
Winds: from the NE (50 degrees) at 8 MPH (7 knots; 3.6 m/s)
Visibility: 6 or more miles (10+ km)
Ceiling: ceiling and visibility are OK
Clouds: unknown
Weather: no significant weather observed at this time

METAR text: LFRL 260200Z AUTO 07006KT 040V110 CAVOK 16/14 Q1021 NOSIG
Conditions at: LFRL (LANVEOC/POULMIC(, FR) observed 0200 UTC 26 June 2019
Temperature: 16.0°C (61°F)
Dewpoint: 14.0°C (57°F) [RH = 88%]
Pressure (altimeter): 30.15 inches Hg (1021.0 mb)
Winds: from the ENE (70 degrees) at 7 MPH (6 knots; 3.1 m/s)
Visibility: 6 or more miles (10+ km)
Ceiling: ceiling and visibility are OK
Clouds: unknown
Weather: no significant weather observed at this time

METAR text: LFRL 260130Z AUTO 07005KT CAVOK 16/15 Q1021 NOSIG
Conditions at: LFRL (LANVEOC/POULMIC(, FR) observed 0130 UTC 26 June 2019
Temperature: 16.0°C (61°F)
Dewpoint: 15.0°C (59°F) [RH = 94%]
Pressure (altimeter): 30.15 inches Hg (1021.0 mb)
Winds: from the ENE (70 degrees) at 6 MPH (5 knots; 2.6 m/s)
Visibility: 6 or more miles (10+ km)
Ceiling: ceiling and visibility are OK
Clouds: unknown
Weather: no significant weather observed at this time

METAR text: LFRL 260100Z AUTO 04004KT CAVOK 16/14 Q1021 NOSIG
Conditions at: LFRL (LANVEOC/POULMIC(, FR) observed 0100 UTC 26 June 2019
Temperature: 16.0°C (61°F)
Dewpoint: 14.0°C (57°F) [RH = 88%]
Pressure (altimeter): 30.15 inches Hg (1021.0 mb)
Winds: from the NE (40 degrees) at 5 MPH (4 knots; 2.1 m/s)
Visibility: 6 or more miles (10+ km)
Ceiling: ceiling and visibility are OK
Clouds: unknown
Weather: no significant weather observed at this time

METAR text: LFRL 260030Z AUTO 04004KT CAVOK 16/14 Q1021 NOSIG
Conditions at: LFRL (LANVEOC/POULMIC(, FR) observed 0030 UTC 26 June 2019
Temperature: 16.0°C (61°F)
Dewpoint: 14.0°C (57°F) [RH = 88%]
Pressure (altimeter): 30.15 inches Hg (1021.0 mb)
Winds: from the NE (40 degrees) at 5 MPH (4 knots; 2.1 m/s)
Visibility: 6 or more miles (10+ km)
Ceiling: ceiling and visibility are OK
Clouds: unknown
Weather: no significant weather observed at this time

METAR text: LFRL 260000Z AUTO 03005KT CAVOK 16/14 Q1021 NOSIG
Conditions at: LFRL (LANVEOC/POULMIC(, FR) observed 0000 UTC 26 June 2019
Temperature: 16.0°C (61°F)
Dewpoint: 14.0°C (57°F) [RH = 88%]
Pressure (altimeter): 30.15 inches Hg (1021.0 mb)
Winds: from the NNE (30 degrees) at 6 MPH (5 knots; 2.6 m/s)
Visibility: 6 or more miles (10+ km)
Ceiling: ceiling and visibility are OK
Clouds: unknown
Weather: no significant weather observed at this time

METAR text: LFRL 252330Z AUTO 05005KT CAVOK 17/15 Q1021 NOSIG
Conditions at: LFRL (LANVEOC/POULMIC(, FR) observed 2330 UTC 25 June 2019
Temperature: 17.0°C (63°F)
Dewpoint: 15.0°C (59°F) [RH = 88%]
Pressure (altimeter): 30.15 inches Hg (1021.0 mb)
Winds: from the NE (50 degrees) at 6 MPH (5 knots; 2.6 m/s)
Visibility: 6 or more miles (10+ km)
Ceiling: ceiling and visibility are OK
Clouds: unknown
Weather: no significant weather observed at this time

METAR text: LFRL 252300Z AUTO 06006KT CAVOK 17/14 Q1021 NOSIG
Conditions at: LFRL (LANVEOC/POULMIC(, FR) observed 2300 UTC 25 June 2019
Temperature: 17.0°C (63°F)
Dewpoint: 14.0°C (57°F) [RH = 82%]
Pressure (altimeter): 30.15 inches Hg (1021.0 mb)
Winds: from the ENE (60 degrees) at 7 MPH (6 knots; 3.1 m/s)
Visibility: 6 or more miles (10+ km)
Ceiling: ceiling and visibility are OK
Clouds: unknown
Weather: no significant weather observed at this time

METAR text: LFRL 252230Z AUTO 06006KT CAVOK 17/14 Q1021 NOSIG
Conditions at: LFRL (LANVEOC/POULMIC(, FR) observed 2230 UTC 25 June 2019
Temperature: 17.0°C (63°F)
Dewpoint: 14.0°C (57°F) [RH = 82%]
Pressure (altimeter): 30.15 inches Hg (1021.0 mb)
Winds: from the ENE (60 degrees) at 7 MPH (6 knots; 3.1 m/s)
Visibility: 6 or more miles (10+ km)
Ceiling: ceiling and visibility are OK
Clouds: unknown
Weather: no significant weather observed at this time

METAR text: LFRL 252200Z AUTO 04005KT CAVOK 17/14 Q1021 NOSIG
Conditions at: LFRL (LANVEOC/POULMIC(, FR) observed 2200 UTC 25 June 2019
Temperature: 17.0°C (63°F)
Dewpoint: 14.0°C (57°F) [RH = 82%]
Pressure (altimeter): 30.15 inches Hg (1021.0 mb)
Winds: from the NE (40 degrees) at 6 MPH (5 knots; 2.6 m/s)
Visibility: 6 or more miles (10+ km)
Ceiling: ceiling and visibility are OK
Clouds: unknown
Weather: no significant weather observed at this time

METAR text: LFRL 252130Z AUTO 03006KT CAVOK 17/14 Q1021 NOSIG
Conditions at: LFRL (LANVEOC/POULMIC(, FR) observed 2130 UTC 25 June 2019
Temperature: 17.0°C (63°F)
Dewpoint: 14.0°C (57°F) [RH = 82%]
Pressure (altimeter): 30.15 inches Hg (1021.0 mb)
Winds: from the NNE (30 degrees) at 7 MPH (6 knots; 3.1 m/s)
Visibility: 6 or more miles (10+ km)
Ceiling: ceiling and visibility are OK
Clouds: unknown
Weather: no significant weather observed at this time

METAR text: LFRL 252100Z AUTO 03005KT CAVOK 17/14 Q1021 NOSIG
Conditions at: LFRL (LANVEOC/POULMIC(, FR) observed 2100 UTC 25 June 2019
Temperature: 17.0°C (63°F)
Dewpoint: 14.0°C (57°F) [RH = 82%]
Pressure (altimeter): 30.15 inches Hg (1021.0 mb)
Winds: from the NNE (30 degrees) at 6 MPH (5 knots; 2.6 m/s)
Visibility: 6 or more miles (10+ km)
Ceiling: ceiling and visibility are OK
Clouds: unknown
Weather: no significant weather observed at this time

METAR text: LFRL 252030Z AUTO 03006KT CAVOK 18/15 Q1020 NOSIG
Conditions at: LFRL (LANVEOC/POULMIC(, FR) observed 2030 UTC 25 June 2019
Temperature: 18.0°C (64°F)
Dewpoint: 15.0°C (59°F) [RH = 83%]
Pressure (altimeter): 30.12 inches Hg (1020.0 mb)
Winds: from the NNE (30 degrees) at 7 MPH (6 knots; 3.1 m/s)
Visibility: 6 or more miles (10+ km)
Ceiling: ceiling and visibility are OK
Clouds: unknown
Weather: no significant weather observed at this time

METAR text: LFRL 252000Z AUTO 04006KT CAVOK 19/14 Q1020 NOSIG
Conditions at: LFRL (LANVEOC/POULMIC(, FR) observed 2000 UTC 25 June 2019
Temperature: 19.0°C (66°F)
Dewpoint: 14.0°C (57°F) [RH = 73%]
Pressure (altimeter): 30.12 inches Hg (1020.0 mb)
Winds: from the NE (40 degrees) at 7 MPH (6 knots; 3.1 m/s)
Visibility: 6 or more miles (10+ km)
Ceiling: ceiling and visibility are OK
Clouds: unknown
Weather: no significant weather observed at this time

METAR text: LFRL 251930Z AUTO 04005KT CAVOK 20/15 Q1020 NOSIG
Conditions at: LFRL (LANVEOC/POULMIC(, FR) observed 1930 UTC 25 June 2019
Temperature: 20.0°C (68°F)
Dewpoint: 15.0°C (59°F) [RH = 73%]
Pressure (altimeter): 30.12 inches Hg (1020.0 mb)
Winds: from the NE (40 degrees) at 6 MPH (5 knots; 2.6 m/s)
Visibility: 6 or more miles (10+ km)
Ceiling: ceiling and visibility are OK
Clouds: unknown
Weather: no significant weather observed at this time

METAR text: LFRL 251900Z AUTO 02006KT CAVOK 21/16 Q1020 NOSIG
Conditions at: LFRL (LANVEOC/POULMIC(, FR) observed 1900 UTC 25 June 2019
Temperature: 21.0°C (70°F)
Dewpoint: 16.0°C (61°F) [RH = 73%]
Pressure (altimeter): 30.12 inches Hg (1020.0 mb)
Winds: from the NNE (20 degrees) at 7 MPH (6 knots; 3.1 m/s)
Visibility: 6 or more miles (10+ km)
Ceiling: ceiling and visibility are OK
Clouds: unknown
Weather: no significant weather observed at this time

METAR text: LFRL 251830Z AUTO 01006KT 340V050 9999 FEW026 SCT210 BKN240 21/16 Q1020 NOSIG
Conditions at: LFRL (LANVEOC/POULMIC(, FR) observed 1830 UTC 25 June 2019
Temperature: 21.0°C (70°F)
Dewpoint: 16.0°C (61°F) [RH = 73%]
Pressure (altimeter): 30.12 inches Hg (1020.0 mb)
Winds: from the N (10 degrees) at 7 MPH (6 knots; 3.1 m/s)
Visibility: 6 or more miles (10+ km)
Ceiling: 24000 feet AGL
Clouds: few clouds at 2600 feet AGL
scattered clouds at 21000 feet AGL
broken clouds at 24000 feet AGL
Weather: no significant weather observed at this time

METAR text: LFRL 251800Z AUTO 35004KT CAVOK 22/16 Q1020 NOSIG
Conditions at: LFRL (LANVEOC/POULMIC(, FR) observed 1800 UTC 25 June 2019
Temperature: 22.0°C (72°F)
Dewpoint: 16.0°C (61°F) [RH = 69%]
Pressure (altimeter): 30.12 inches Hg (1020.0 mb)
Winds: from the N (350 degrees) at 5 MPH (4 knots; 2.1 m/s)
Visibility: 6 or more miles (10+ km)
Ceiling: ceiling and visibility are OK
Clouds: unknown
Weather: no significant weather observed at this time

METAR text: LFRL 251730Z AUTO 34004KT 300V040 CAVOK 22/16 Q1020 NOSIG
Conditions at: LFRL (LANVEOC/POULMIC(, FR) observed 1730 UTC 25 June 2019
Temperature: 22.0°C (72°F)
Dewpoint: 16.0°C (61°F) [RH = 69%]
Pressure (altimeter): 30.12 inches Hg (1020.0 mb)
Winds: from the NNW (340 degrees) at 5 MPH (4 knots; 2.1 m/s)
Visibility: 6 or more miles (10+ km)
Ceiling: ceiling and visibility are OK
Clouds: unknown
Weather: no significant weather observed at this time

METAR text: LFRL 251700Z AUTO 33005KT CAVOK 23/16 Q1019 NOSIG
Conditions at: LFRL (LANVEOC/POULMIC(, FR) observed 1700 UTC 25 June 2019
Temperature: 23.0°C (73°F)
Dewpoint: 16.0°C (61°F) [RH = 65%]
Pressure (altimeter): 30.09 inches Hg (1019.0 mb)
Winds: from the NNW (330 degrees) at 6 MPH (5 knots; 2.6 m/s)
Visibility: 6 or more miles (10+ km)
Ceiling: ceiling and visibility are OK
Clouds: unknown
Weather: no significant weather observed at this time

METAR text: LFRL 251630Z AUTO 35004KT 300V030 CAVOK 23/15 Q1019 NOSIG
Conditions at: LFRL (LANVEOC/POULMIC(, FR) observed 1630 UTC 25 June 2019
Temperature: 23.0°C (73°F)
Dewpoint: 15.0°C (59°F) [RH = 61%]
Pressure (altimeter): 30.09 inches Hg (1019.0 mb)
Winds: from the N (350 degrees) at 5 MPH (4 knots; 2.1 m/s)
Visibility: 6 or more miles (10+ km)
Ceiling: ceiling and visibility are OK
Clouds: unknown
Weather: no significant weather observed at this time

METAR text: LFRL 251600Z AUTO 01003KT 310V090 9999 SCT031 BKN250 22/15 Q1019 NOSIG
Conditions at: LFRL (LANVEOC/POULMIC(, FR) observed 1600 UTC 25 June 2019
Temperature: 22.0°C (72°F)
Dewpoint: 15.0°C (59°F) [RH = 65%]
Pressure (altimeter): 30.09 inches Hg (1019.0 mb)
Winds: from the N (10 degrees) at 3 MPH (3 knots; 1.5 m/s)
Visibility: 6 or more miles (10+ km)
Ceiling: 25000 feet AGL
Clouds: scattered clouds at 3100 feet AGL
broken clouds at 25000 feet AGL
Weather: no significant weather observed at this time

METAR text: LFRL 251530Z AUTO 33004KT 300V020 9999 FEW030 BKN200 BKN240 23/16 Q1019 NOSIG
Conditions at: LFRL (LANVEOC/POULMIC(, FR) observed 1530 UTC 25 June 2019
Temperature: 23.0°C (73°F)
Dewpoint: 16.0°C (61°F) [RH = 65%]
Pressure (altimeter): 30.09 inches Hg (1019.0 mb)
Winds: from the NNW (330 degrees) at 5 MPH (4 knots; 2.1 m/s)
Visibility: 6 or more miles (10+ km)
Ceiling: 20000 feet AGL
Clouds: few clouds at 3000 feet AGL
broken clouds at 20000 feet AGL
broken clouds at 24000 feet AGL
Weather: no significant weather observed at this time

METAR text: LFRL 251500Z AUTO 33004KT 300V020 9999 FEW033 BKN200 22/15 Q1019 NOSIG
Conditions at: LFRL (LANVEOC/POULMIC(, FR) observed 1500 UTC 25 June 2019
Temperature: 22.0°C (72°F)
Dewpoint: 15.0°C (59°F) [RH = 65%]
Pressure (altimeter): 30.09 inches Hg (1019.0 mb)
Winds: from the NNW (330 degrees) at 5 MPH (4 knots; 2.1 m/s)
Visibility: 6 or more miles (10+ km)
Ceiling: 20000 feet AGL
Clouds: few clouds at 3300 feet AGL
broken clouds at 20000 feet AGL
Weather: no significant weather observed at this time

METAR text: LFRL 251430Z AUTO 34004KT 300V030 CAVOK 23/16 Q1019 NOSIG
Conditions at: LFRL (LANVEOC/POULMIC(, FR) observed 1430 UTC 25 June 2019
Temperature: 23.0°C (73°F)
Dewpoint: 16.0°C (61°F) [RH = 65%]
Pressure (altimeter): 30.09 inches Hg (1019.0 mb)
Winds: from the NNW (340 degrees) at 5 MPH (4 knots; 2.1 m/s)
Visibility: 6 or more miles (10+ km)
Ceiling: ceiling and visibility are OK
Clouds: unknown
Weather: no significant weather observed at this time

METAR text: LFRL 251400Z AUTO 33006KT 290V020 CAVOK 23/16 Q1019 NOSIG
Conditions at: LFRL (LANVEOC/POULMIC(, FR) observed 1400 UTC 25 June 2019
Temperature: 23.0°C (73°F)
Dewpoint: 16.0°C (61°F) [RH = 65%]
Pressure (altimeter): 30.09 inches Hg (1019.0 mb)
Winds: from the NNW (330 degrees) at 7 MPH (6 knots; 3.1 m/s)
Visibility: 6 or more miles (10+ km)
Ceiling: ceiling and visibility are OK
Clouds: unknown
Weather: no significant weather observed at this time

METAR text: LFRL 251330Z AUTO 35004KT 300V040 CAVOK 22/15 Q1019 NOSIG
Conditions at: LFRL (LANVEOC/POULMIC(, FR) observed 1330 UTC 25 June 2019
Temperature: 22.0°C (72°F)
Dewpoint: 15.0°C (59°F) [RH = 65%]
Pressure (altimeter): 30.09 inches Hg (1019.0 mb)
Winds: from the N (350 degrees) at 5 MPH (4 knots; 2.1 m/s)
Visibility: 6 or more miles (10+ km)
Ceiling: ceiling and visibility are OK
Clouds: unknown
Weather: no significant weather observed at this time

METAR text: LFRL 251300Z AUTO 36004KT 310V080 9999 FEW026 22/16 Q1019 NOSIG
Conditions at: LFRL (LANVEOC/POULMIC(, FR) observed 1300 UTC 25 June 2019
Temperature: 22.0°C (72°F)
Dewpoint: 16.0°C (61°F) [RH = 69%]
Pressure (altimeter): 30.09 inches Hg (1019.0 mb)
Winds: from the N (360 degrees) at 5 MPH (4 knots; 2.1 m/s)
Visibility: 6 or more miles (10+ km)
Ceiling: at least 12,000 feet AGL
Clouds: few clouds at 2600 feet AGL
Weather: no significant weather observed at this time

METAR text: LFRL 251230Z AUTO 33005KT 300V030 CAVOK 21/15 Q1019 NOSIG
Conditions at: LFRL (LANVEOC/POULMIC(, FR) observed 1230 UTC 25 June 2019
Temperature: 21.0°C (70°F)
Dewpoint: 15.0°C (59°F) [RH = 69%]
Pressure (altimeter): 30.09 inches Hg (1019.0 mb)
Winds: from the NNW (330 degrees) at 6 MPH (5 knots; 2.6 m/s)
Visibility: 6 or more miles (10+ km)
Ceiling: ceiling and visibility are OK
Clouds: unknown
Weather: no significant weather observed at this time

METAR text: LFRL 251200Z AUTO 02004KT 320V070 9999 FEW025 22/15 Q1019 NOSIG
Conditions at: LFRL (LANVEOC/POULMIC(, FR) observed 1200 UTC 25 June 2019
Temperature: 22.0°C (72°F)
Dewpoint: 15.0°C (59°F) [RH = 65%]
Pressure (altimeter): 30.09 inches Hg (1019.0 mb)
Winds: from the NNE (20 degrees) at 5 MPH (4 knots; 2.1 m/s)
Visibility: 6 or more miles (10+ km)
Ceiling: at least 12,000 feet AGL
Clouds: few clouds at 2500 feet AGL
Weather: no significant weather observed at this time

METAR text: LFRL 251130Z AUTO VRB03KT 9999 SCT022 21/15 Q1019 NOSIG
Conditions at: LFRL (LANVEOC/POULMIC(, FR) observed 1130 UTC 25 June 2019
Temperature: 21.0°C (70°F)
Dewpoint: 15.0°C (59°F) [RH = 69%]
Pressure (altimeter): 30.09 inches Hg (1019.0 mb)
Winds: variable direction winds at 3 MPH (3 knots; 1.5 m/s)
Visibility: 6 or more miles (10+ km)
Ceiling: at least 12,000 feet AGL
Clouds: scattered clouds at 2200 feet AGL
Weather: no significant weather observed at this time

METAR text: LFRL 251100Z AUTO VRB03KT 9999 FEW020 21/15 Q1019 NOSIG
Conditions at: LFRL (LANVEOC/POULMIC(, FR) observed 1100 UTC 25 June 2019
Temperature: 21.0°C (70°F)
Dewpoint: 15.0°C (59°F) [RH = 69%]
Pressure (altimeter): 30.09 inches Hg (1019.0 mb)
Winds: variable direction winds at 3 MPH (3 knots; 1.5 m/s)
Visibility: 6 or more miles (10+ km)
Ceiling: at least 12,000 feet AGL
Clouds: few clouds at 2000 feet AGL
Weather: no significant weather observed at this time

METAR text: LFRL 251030Z AUTO 08004KT 030V120 9999 FEW016 20/15 Q1019 NOSIG
Conditions at: LFRL (LANVEOC/POULMIC(, FR) observed 1030 UTC 25 June 2019
Temperature: 20.0°C (68°F)
Dewpoint: 15.0°C (59°F) [RH = 73%]
Pressure (altimeter): 30.09 inches Hg (1019.0 mb)
Winds: from the E (80 degrees) at 5 MPH (4 knots; 2.1 m/s)
Visibility: 6 or more miles (10+ km)
Ceiling: at least 12,000 feet AGL
Clouds: few clouds at 1600 feet AGL
Weather: no significant weather observed at this time

METAR text: LFRL 251000Z AUTO VRB03KT 9999 FEW013 20/15 Q1019 NOSIG
Conditions at: LFRL (LANVEOC/POULMIC(, FR) observed 1000 UTC 25 June 2019
Temperature: 20.0°C (68°F)
Dewpoint: 15.0°C (59°F) [RH = 73%]
Pressure (altimeter): 30.09 inches Hg (1019.0 mb)
Winds: variable direction winds at 3 MPH (3 knots; 1.5 m/s)
Visibility: 6 or more miles (10+ km)
Ceiling: at least 12,000 feet AGL
Clouds: few clouds at 1300 feet AGL
Weather: no significant weather observed at this time

METAR text: LFRL 250930Z AUTO 01005KT 320V050 CAVOK 19/15 Q1018 NOSIG
Conditions at: LFRL (LANVEOC/POULMIC(, FR) observed 0930 UTC 25 June 2019
Temperature: 19.0°C (66°F)
Dewpoint: 15.0°C (59°F) [RH = 78%]
Pressure (altimeter): 30.06 inches Hg (1018.0 mb)
Winds: from the N (10 degrees) at 6 MPH (5 knots; 2.6 m/s)
Visibility: 6 or more miles (10+ km)
Ceiling: ceiling and visibility are OK
Clouds: unknown
Weather: no significant weather observed at this time

METAR text: LFRL 250900Z AUTO 02005KT 9999 FEW008 18/15 Q1018 TEMPO BKN012
Conditions at: LFRL (LANVEOC/POULMIC(, FR) observed 0900 UTC 25 June 2019
Temperature: 18.0°C (64°F)
Dewpoint: 15.0°C (59°F) [RH = 83%]
Pressure (altimeter): 30.06 inches Hg (1018.0 mb)
Winds: from the NNE (20 degrees) at 6 MPH (5 knots; 2.6 m/s)
Visibility: 6 or more miles (10+ km)
Ceiling: at least 12,000 feet AGL
Clouds: few clouds at 800 feet AGL
Weather: no significant weather observed at this time

METAR text: LFRL 250830Z AUTO 09003KT 030V130 9999 SCT007 BKN025 18/14 Q1018 TEMPO BKN012
Conditions at: LFRL (LANVEOC/POULMIC(, FR) observed 0830 UTC 25 June 2019
Temperature: 18.0°C (64°F)
Dewpoint: 14.0°C (57°F) [RH = 77%]
Pressure (altimeter): 30.06 inches Hg (1018.0 mb)
Winds: from the E (90 degrees) at 3 MPH (3 knots; 1.5 m/s)
Visibility: 6 or more miles (10+ km)
Ceiling: 2500 feet AGL
Clouds: scattered clouds at 700 feet AGL
broken clouds at 2500 feet AGL
Weather: no significant weather observed at this time

METAR text: LFRL 250800Z AUTO 06004KT 8000 BKN006 BKN023 BKN100 16/14 Q1018 BECMG BKN012
Conditions at: LFRL (LANVEOC/POULMIC(, FR) observed 0800 UTC 25 June 2019
Temperature: 16.0°C (61°F)
Dewpoint: 14.0°C (57°F) [RH = 88%]
Pressure (altimeter): 30.06 inches Hg (1018.0 mb)
Winds: from the ENE (60 degrees) at 5 MPH (4 knots; 2.1 m/s)
Visibility: 5 miles ( 8 km)
Ceiling: 600 feet AGL
Clouds: broken clouds at 600 feet AGL
broken clouds at 2300 feet AGL
broken clouds at 10000 feet AGL
Weather: no significant weather observed at this time

METAR text: LFRL 250730Z AUTO 06003KT 010V100 6000 BKN004 OVC023 16/14 Q1018 BECMG BKN012
Conditions at: LFRL (LANVEOC/POULMIC(, FR) observed 0730 UTC 25 June 2019
Temperature: 16.0°C (61°F)
Dewpoint: 14.0°C (57°F) [RH = 88%]
Pressure (altimeter): 30.06 inches Hg (1018.0 mb)
Winds: from the ENE (60 degrees) at 3 MPH (3 knots; 1.5 m/s)
Visibility: 4 miles ( 6 km)
Ceiling: 400 feet AGL
Clouds: broken clouds at 400 feet AGL
overcast cloud deck at 2300 feet AGL
Weather: no significant weather observed at this time

METAR text: LFRL 250700Z AUTO 03005KT 5000 BR BKN004 BKN024 OVC110 15/14 Q1018 BECMG BKN012
Conditions at: LFRL (LANVEOC/POULMIC(, FR) observed 0700 UTC 25 June 2019
Temperature: 15.0°C (59°F)
Dewpoint: 14.0°C (57°F) [RH = 94%]
Pressure (altimeter): 30.06 inches Hg (1018.0 mb)
Winds: from the NNE (30 degrees) at 6 MPH (5 knots; 2.6 m/s)
Visibility: 3 miles ( 5 km)
Ceiling: 400 feet AGL
Clouds: broken clouds at 400 feet AGL
broken clouds at 2400 feet AGL
overcast cloud deck at 11000 feet AGL
Weather: BR  (mist)

METAR text: LFRL 250630Z AUTO 02004KT 5000 BR OVC004 15/14 Q1018 BECMG BKN012
Conditions at: LFRL (LANVEOC/POULMIC(, FR) observed 0630 UTC 25 June 2019
Temperature: 15.0°C (59°F)
Dewpoint: 14.0°C (57°F) [RH = 94%]
Pressure (altimeter): 30.06 inches Hg (1018.0 mb)
Winds: from the NNE (20 degrees) at 5 MPH (4 knots; 2.1 m/s)
Visibility: 3 miles ( 5 km)
Ceiling: 400 feet AGL
Clouds: overcast cloud deck at 400 feet AGL
Weather: BR  (mist)

METAR text: LFRL 250600Z AUTO 03004KT 5000 BR BKN004 14/14 Q1018 NOSIG
Conditions at: LFRL (LANVEOC/POULMIC(, FR) observed 0600 UTC 25 June 2019
Temperature: 14.0°C (57°F)
Dewpoint: 14.0°C (57°F) [RH = 100%]
Pressure (altimeter): 30.06 inches Hg (1018.0 mb)
Winds: from the NNE (30 degrees) at 5 MPH (4 knots; 2.1 m/s)
Visibility: 3 miles ( 5 km)
Ceiling: 400 feet AGL
Clouds: broken clouds at 400 feet AGL
Weather: BR  (mist)

METAR text: LFRL 250530Z AUTO 03005KT 5000 BR OVC003 14/13 Q1017 NOSIG
Conditions at: LFRL (LANVEOC/POULMIC(, FR) observed 0530 UTC 25 June 2019
Temperature: 14.0°C (57°F)
Dewpoint: 13.0°C (55°F) [RH = 94%]
Pressure (altimeter): 30.03 inches Hg (1017.0 mb)
Winds: from the NNE (30 degrees) at 6 MPH (5 knots; 2.6 m/s)
Visibility: 3 miles ( 5 km)
Ceiling: 300 feet AGL
Clouds: overcast cloud deck at 300 feet AGL
Weather: BR  (mist)

METAR text: LFRL 250500Z AUTO 02005KT 6000 OVC004 14/13 Q1017
Conditions at: LFRL (LANVEOC/POULMIC(, FR) observed 0500 UTC 25 June 2019
Temperature: 14.0°C (57°F)
Dewpoint: 13.0°C (55°F) [RH = 94%]
Pressure (altimeter): 30.03 inches Hg (1017.0 mb)
Winds: from the NNE (20 degrees) at 6 MPH (5 knots; 2.6 m/s)
Visibility: 4 miles ( 6 km)
Ceiling: 400 feet AGL
Clouds: overcast cloud deck at 400 feet AGL
Weather: no significant weather observed at this time

METAR text: LFRL 250430Z AUTO 02005KT 7000 BKN003 OVC050 14/13 Q1017
Conditions at: LFRL (LANVEOC/POULMIC(, FR) observed 0430 UTC 25 June 2019
Temperature: 14.0°C (57°F)
Dewpoint: 13.0°C (55°F) [RH = 94%]
Pressure (altimeter): 30.03 inches Hg (1017.0 mb)
Winds: from the NNE (20 degrees) at 6 MPH (5 knots; 2.6 m/s)
Visibility: 4 miles ( 7 km)
Ceiling: 300 feet AGL
Clouds: broken clouds at 300 feet AGL
overcast cloud deck at 5000 feet AGL
Weather: no significant weather observed at this time

METAR text: LFRL 250400Z AUTO 02005KT 8000 BKN004 OVC049 14/14 Q1017
Conditions at: LFRL (LANVEOC/POULMIC(, FR) observed 0400 UTC 25 June 2019
Temperature: 14.0°C (57°F)
Dewpoint: 14.0°C (57°F) [RH = 100%]
Pressure (altimeter): 30.03 inches Hg (1017.0 mb)
Winds: from the NNE (20 degrees) at 6 MPH (5 knots; 2.6 m/s)
Visibility: 5 miles ( 8 km)
Ceiling: 400 feet AGL
Clouds: broken clouds at 400 feet AGL
overcast cloud deck at 4900 feet AGL
Weather: no significant weather observed at this time

METAR text: LFRL 250330Z AUTO 01004KT 8000 BKN004 OVC049 15/14 Q1017
Conditions at: LFRL (LANVEOC/POULMIC(, FR) observed 0330 UTC 25 June 2019
Temperature: 15.0°C (59°F)
Dewpoint: 14.0°C (57°F) [RH = 94%]
Pressure (altimeter): 30.03 inches Hg (1017.0 mb)
Winds: from the N (10 degrees) at 5 MPH (4 knots; 2.1 m/s)
Visibility: 5 miles ( 8 km)
Ceiling: 400 feet AGL
Clouds: broken clouds at 400 feet AGL
overcast cloud deck at 4900 feet AGL
Weather: no significant weather observed at this time

METAR text: LFRL 250300Z AUTO 01004KT 9000 OVC004 15/14 Q1017
Conditions at: LFRL (LANVEOC/POULMIC(, FR) observed 0300 UTC 25 June 2019
Temperature: 15.0°C (59°F)
Dewpoint: 14.0°C (57°F) [RH = 94%]
Pressure (altimeter): 30.03 inches Hg (1017.0 mb)
Winds: from the N (10 degrees) at 5 MPH (4 knots; 2.1 m/s)
Visibility: 6 miles ( 9 km)
Ceiling: 400 feet AGL
Clouds: overcast cloud deck at 400 feet AGL
Weather: no significant weather observed at this time

METAR text: LFRL 250230Z AUTO 02003KT 7000 BKN004 BKN048 OVC090 15/14 Q1017
Conditions at: LFRL (LANVEOC/POULMIC(, FR) observed 0230 UTC 25 June 2019
Temperature: 15.0°C (59°F)
Dewpoint: 14.0°C (57°F) [RH = 94%]
Pressure (altimeter): 30.03 inches Hg (1017.0 mb)
Winds: from the NNE (20 degrees) at 3 MPH (3 knots; 1.5 m/s)
Visibility: 4 miles ( 7 km)
Ceiling: 400 feet AGL
Clouds: broken clouds at 400 feet AGL
broken clouds at 4800 feet AGL
overcast cloud deck at 9000 feet AGL
Weather: no significant weather observed at this time

METAR text: LFRL 250200Z AUTO 01004KT 6000 SCT005/// BKN092/// OVC110/// ///TCU 15/14 Q1017
Conditions at: LFRL (LANVEOC/POULMIC(, FR) observed 0200 UTC 25 June 2019
Temperature: 15.0°C (59°F)
Dewpoint: 14.0°C (57°F) [RH = 94%]
Pressure (altimeter): 30.03 inches Hg (1017.0 mb)
Winds: from the N (10 degrees) at 5 MPH (4 knots; 2.1 m/s)
Visibility: 4 miles ( 6 km)
Ceiling: 9200 feet AGL
Clouds: scattered clouds at 500 feet AGL
broken clouds at 9200 feet AGL
overcast cloud deck at 11000 feet AGL
Weather: no significant weather observed at this time

METAR text: LFRL 250130Z AUTO 01003KT 8000 -RA FEW011 BKN094 OVC110 15/14 Q1017
Conditions at: LFRL (LANVEOC/POULMIC(, FR) observed 0130 UTC 25 June 2019
Temperature: 15.0°C (59°F)
Dewpoint: 14.0°C (57°F) [RH = 94%]
Pressure (altimeter): 30.03 inches Hg (1017.0 mb)
Winds: from the N (10 degrees) at 3 MPH (3 knots; 1.5 m/s)
Visibility: 5 miles ( 8 km)
Ceiling: 9400 feet AGL
Clouds: few clouds at 1100 feet AGL
broken clouds at 9400 feet AGL
overcast cloud deck at 11000 feet AGL
Weather: -RA  (light rain)

METAR text: LFRL 250100Z AUTO 02003KT 9999 -RA ///TCU 15/14 Q1017
Conditions at: LFRL (LANVEOC/POULMIC(, FR) observed 0100 UTC 25 June 2019
Temperature: 15.0°C (59°F)
Dewpoint: 14.0°C (57°F) [RH = 94%]
Pressure (altimeter): 30.03 inches Hg (1017.0 mb)
Winds: from the NNE (20 degrees) at 3 MPH (3 knots; 1.5 m/s)
Visibility: 6 or more miles (10+ km)
Ceiling: unknown
Clouds: missing
Weather: -RA  (light rain)

METAR text: LFRL 250030Z AUTO VRB02KT 9999 ///TCU 15/14 Q1017
Conditions at: LFRL (LANVEOC/POULMIC(, FR) observed 0030 UTC 25 June 2019
Temperature: 15.0°C (59°F)
Dewpoint: 14.0°C (57°F) [RH = 94%]
Pressure (altimeter): 30.03 inches Hg (1017.0 mb)
Winds: variable direction winds at 2 MPH (2 knots; 1.0 m/s)
Visibility: 6 or more miles (10+ km)
Ceiling: unknown
Clouds: missing
Weather: no significant weather observed at this time

METAR text: LFRL 250000Z AUTO 04005KT 020V080 9999 -RA NSC 16/14 Q1017 BECMG BKN010
Conditions at: LFRL (LANVEOC/POULMIC(, FR) observed 0000 UTC 25 June 2019
Temperature: 16.0°C (61°F)
Dewpoint: 14.0°C (57°F) [RH = 88%]
Pressure (altimeter): 30.03 inches Hg (1017.0 mb)
Winds: from the NE (40 degrees) at 6 MPH (5 knots; 2.6 m/s)
Visibility: 6 or more miles (10+ km)
Ceiling: at least 12,000 feet AGL
Clouds: sky clear below 12,000 feet AGL
Weather: -RA  (light rain)

METAR text: LFRL 242330Z AUTO 01004KT CAVOK 15/14 Q1017 BECMG BKN010
Conditions at: LFRL (LANVEOC/POULMIC(, FR) observed 2330 UTC 24 June 2019
Temperature: 15.0°C (59°F)
Dewpoint: 14.0°C (57°F) [RH = 94%]
Pressure (altimeter): 30.03 inches Hg (1017.0 mb)
Winds: from the N (10 degrees) at 5 MPH (4 knots; 2.1 m/s)
Visibility: 6 or more miles (10+ km)
Ceiling: ceiling and visibility are OK
Clouds: unknown
Weather: no significant weather observed at this time

METAR text: LFRL 242300Z AUTO 02004KT CAVOK 15/14 Q1017 TEMPO 4000 SHRA BKN015TCU
Conditions at: LFRL (LANVEOC/POULMIC(, FR) observed 2300 UTC 24 June 2019
Temperature: 15.0°C (59°F)
Dewpoint: 14.0°C (57°F) [RH = 94%]
Pressure (altimeter): 30.03 inches Hg (1017.0 mb)
Winds: from the NNE (20 degrees) at 5 MPH (4 knots; 2.1 m/s)
Visibility: 6 or more miles (10+ km)
Ceiling: ceiling and visibility are OK
Clouds: unknown
Weather: no significant weather observed at this time

METAR text: LFRL 242230Z AUTO 01003KT CAVOK 15/14 Q1017 TEMPO 4000 SHRA BKN015TCU
Conditions at: LFRL (LANVEOC/POULMIC(, FR) observed 2230 UTC 24 June 2019
Temperature: 15.0°C (59°F)
Dewpoint: 14.0°C (57°F) [RH = 94%]
Pressure (altimeter): 30.03 inches Hg (1017.0 mb)
Winds: from the N (10 degrees) at 3 MPH (3 knots; 1.5 m/s)
Visibility: 6 or more miles (10+ km)
Ceiling: ceiling and visibility are OK
Clouds: unknown
Weather: no significant weather observed at this time

METAR text: LFRL 242200Z AUTO 04006KT 9999 FEW006 OVC120 16/14 Q1017 TEMPO 4000 SHRA BKN015TCU
Conditions at: LFRL (LANVEOC/POULMIC(, FR) observed 2200 UTC 24 June 2019
Temperature: 16.0°C (61°F)
Dewpoint: 14.0°C (57°F) [RH = 88%]
Pressure (altimeter): 30.03 inches Hg (1017.0 mb)
Winds: from the NE (40 degrees) at 7 MPH (6 knots; 3.1 m/s)
Visibility: 6 or more miles (10+ km)
Ceiling: 12000 feet AGL
Clouds: few clouds at 600 feet AGL
overcast cloud deck at 12000 feet AGL
Weather: no significant weather observed at this time

METAR text: LFRL 242130Z AUTO 05005KT CAVOK 16/15 Q1017 TEMPO 4000 SHRA BKN015TCU
Conditions at: LFRL (LANVEOC/POULMIC(, FR) observed 2130 UTC 24 June 2019
Temperature: 16.0°C (61°F)
Dewpoint: 15.0°C (59°F) [RH = 94%]
Pressure (altimeter): 30.03 inches Hg (1017.0 mb)
Winds: from the NE (50 degrees) at 6 MPH (5 knots; 2.6 m/s)
Visibility: 6 or more miles (10+ km)
Ceiling: ceiling and visibility are OK
Clouds: unknown
Weather: no significant weather observed at this time

METAR text: LFRL 242100Z AUTO 04006KT 9999 -RA NSC 16/15 Q1017 TEMPO 4000 SHRA BKN015TCU
Conditions at: LFRL (LANVEOC/POULMIC(, FR) observed 2100 UTC 24 June 2019
Temperature: 16.0°C (61°F)
Dewpoint: 15.0°C (59°F) [RH = 94%]
Pressure (altimeter): 30.03 inches Hg (1017.0 mb)
Winds: from the NE (40 degrees) at 7 MPH (6 knots; 3.1 m/s)
Visibility: 6 or more miles (10+ km)
Ceiling: at least 12,000 feet AGL
Clouds: sky clear below 12,000 feet AGL
Weather: -RA  (light rain)

METAR text: LFRL 242030Z AUTO 04005KT 9999 -RADZ SCT049 BKN056 BKN066 17/15 Q1017 TEMPO 4000 SHRA BKN015TCU
Conditions at: LFRL (LANVEOC/POULMIC(, FR) observed 2030 UTC 24 June 2019
Temperature: 17.0°C (63°F)
Dewpoint: 15.0°C (59°F) [RH = 88%]
Pressure (altimeter): 30.03 inches Hg (1017.0 mb)
Winds: from the NE (40 degrees) at 6 MPH (5 knots; 2.6 m/s)
Visibility: 6 or more miles (10+ km)
Ceiling: 5600 feet AGL
Clouds: scattered clouds at 4900 feet AGL
broken clouds at 5600 feet AGL
broken clouds at 6600 feet AGL
Weather: -RA -DZ  (light rain, light drizzle)

METAR text: LFRL 242000Z AUTO 03004KT 9999 -RA NSC 17/15 Q1017 TEMPO 4000 SHRA BKN015TCU
Conditions at: LFRL (LANVEOC/POULMIC(, FR) observed 2000 UTC 24 June 2019
Temperature: 17.0°C (63°F)
Dewpoint: 15.0°C (59°F) [RH = 88%]
Pressure (altimeter): 30.03 inches Hg (1017.0 mb)
Winds: from the NNE (30 degrees) at 5 MPH (4 knots; 2.1 m/s)
Visibility: 6 or more miles (10+ km)
Ceiling: at least 12,000 feet AGL
Clouds: sky clear below 12,000 feet AGL
Weather: -RA  (light rain)

METAR text: LFRL 241930Z AUTO 04004KT 020V080 CAVOK 17/16 Q1017 TEMPO 4000 SHRA BKN015TCU
Conditions at: LFRL (LANVEOC/POULMIC(, FR) observed 1930 UTC 24 June 2019
Temperature: 17.0°C (63°F)
Dewpoint: 16.0°C (61°F) [RH = 94%]
Pressure (altimeter): 30.03 inches Hg (1017.0 mb)
Winds: from the NE (40 degrees) at 5 MPH (4 knots; 2.1 m/s)
Visibility: 6 or more miles (10+ km)
Ceiling: ceiling and visibility are OK
Clouds: unknown
Weather: no significant weather observed at this time

METAR text: LFRL 241900Z AUTO 06004KT 9999 FEW014 BKN120 17/16 Q1017 TEMPO 4000 SHRA BKN015TCU
Conditions at: LFRL (LANVEOC/POULMIC(, FR) observed 1900 UTC 24 June 2019
Temperature: 17.0°C (63°F)
Dewpoint: 16.0°C (61°F) [RH = 94%]
Pressure (altimeter): 30.03 inches Hg (1017.0 mb)
Winds: from the ENE (60 degrees) at 5 MPH (4 knots; 2.1 m/s)
Visibility: 6 or more miles (10+ km)
Ceiling: 12000 feet AGL
Clouds: few clouds at 1400 feet AGL
broken clouds at 12000 feet AGL
Weather: no significant weather observed at this time

METAR text: LFRL 241830Z AUTO 05003KT 010V090 9999 -RA FEW013 SCT074 BKN092 17/16 Q1017 TEMPO 4000 SHRA BKN015TCU
Conditions at: LFRL (LANVEOC/POULMIC(, FR) observed 1830 UTC 24 June 2019
Temperature: 17.0°C (63°F)
Dewpoint: 16.0°C (61°F) [RH = 94%]
Pressure (altimeter): 30.03 inches Hg (1017.0 mb)
Winds: from the NE (50 degrees) at 3 MPH (3 knots; 1.5 m/s)
Visibility: 6 or more miles (10+ km)
Ceiling: 9200 feet AGL
Clouds: few clouds at 1300 feet AGL
scattered clouds at 7400 feet AGL
broken clouds at 9200 feet AGL
Weather: -RA  (light rain)

METAR text: LFRL 241800Z AUTO VRB03KT 9999 -RA NSC 17/16 Q1017 TEMPO 4000 SHRA BKN015TCU
Conditions at: LFRL (LANVEOC/POULMIC(, FR) observed 1800 UTC 24 June 2019
Temperature: 17.0°C (63°F)
Dewpoint: 16.0°C (61°F) [RH = 94%]
Pressure (altimeter): 30.03 inches Hg (1017.0 mb)
Winds: variable direction winds at 3 MPH (3 knots; 1.5 m/s)
Visibility: 6 or more miles (10+ km)
Ceiling: at least 12,000 feet AGL
Clouds: sky clear below 12,000 feet AGL
Weather: -RA  (light rain)

METAR text: LFRL 241730Z AUTO 06004KT 020V080 9999 -RA FEW046 OVC100 18/16 Q1017 TEMPO 4000 SHRA BKN015TCU
Conditions at: LFRL (LANVEOC/POULMIC(, FR) observed 1730 UTC 24 June 2019
Temperature: 18.0°C (64°F)
Dewpoint: 16.0°C (61°F) [RH = 88%]
Pressure (altimeter): 30.03 inches Hg (1017.0 mb)
Winds: from the ENE (60 degrees) at 5 MPH (4 knots; 2.1 m/s)
Visibility: 6 or more miles (10+ km)
Ceiling: 10000 feet AGL
Clouds: few clouds at 4600 feet AGL
overcast cloud deck at 10000 feet AGL
Weather: -RA  (light rain)

METAR text: LFRL 241700Z AUTO 05005KT 9999 -RA NSC 18/15 Q1017 TEMPO 4000 SHRA BKN015TCU
Conditions at: LFRL (LANVEOC/POULMIC(, FR) observed 1700 UTC 24 June 2019
Temperature: 18.0°C (64°F)
Dewpoint: 15.0°C (59°F) [RH = 83%]
Pressure (altimeter): 30.03 inches Hg (1017.0 mb)
Winds: from the NE (50 degrees) at 6 MPH (5 knots; 2.6 m/s)
Visibility: 6 or more miles (10+ km)
Ceiling: at least 12,000 feet AGL
Clouds: sky clear below 12,000 feet AGL
Weather: -RA  (light rain)

METAR text: LFRL 241630Z AUTO 05006KT 9999 FEW020 SCT040 OVC098 18/15 Q1017 TEMPO 4000 SHRA BKN015TCU
Conditions at: LFRL (LANVEOC/POULMIC(, FR) observed 1630 UTC 24 June 2019
Temperature: 18.0°C (64°F)
Dewpoint: 15.0°C (59°F) [RH = 83%]
Pressure (altimeter): 30.03 inches Hg (1017.0 mb)
Winds: from the NE (50 degrees) at 7 MPH (6 knots; 3.1 m/s)
Visibility: 6 or more miles (10+ km)
Ceiling: 9800 feet AGL
Clouds: few clouds at 2000 feet AGL
scattered clouds at 4000 feet AGL
overcast cloud deck at 9800 feet AGL
Weather: no significant weather observed at this time

METAR text: LFRL 241600Z AUTO 05005KT 9999 -RA FEW032 BKN078 OVC092 19/15 Q1017 BECMG BKN010
Conditions at: LFRL (LANVEOC/POULMIC(, FR) observed 1600 UTC 24 June 2019
Temperature: 19.0°C (66°F)
Dewpoint: 15.0°C (59°F) [RH = 78%]
Pressure (altimeter): 30.03 inches Hg (1017.0 mb)
Winds: from the NE (50 degrees) at 6 MPH (5 knots; 2.6 m/s)
Visibility: 6 or more miles (10+ km)
Ceiling: 7800 feet AGL
Clouds: few clouds at 3200 feet AGL
broken clouds at 7800 feet AGL
overcast cloud deck at 9200 feet AGL
Weather: -RA  (light rain)